<?xml version="1.0" encoding="UTF-8" standalone="no" ?>
<gpx xmlns="http://www.topografix.com/GPX/1/1" xmlns:xsi="http://www.w3.org/2001/XMLSchema-instance" xsi:schemaLocation="http://www.topografix.com/GPX/1/1 http://www.topografix.com/GPX/1/1/gpx.xsd" version="1.1" creator="VisuGPX - https://www.visugpx.com">
  <metadata>
    <name>NDO GASTRO</name>
    <desc><![CDATA[RANDO GASTRO]]></desc>
  </metadata>
  <trk>
    <name><![CDATA[OR-6174333--Roquesteron:RANDO GASTRO]]></name>
    <trkseg>
      <trkpt lat="43.87281" lon="7.00595">
        <ele>319</ele>
        <time>2016-06-11T19:53:17Z</time>
      </trkpt>
      <trkpt lat="43.8726" lon="7.00527">
        <ele>324</ele>
        <time>2016-06-11T19:55:17Z</time>
      </trkpt>
      <trkpt lat="43.87271" lon="7.00445">
        <ele>333</ele>
        <time>2016-06-11T19:57:17Z</time>
      </trkpt>
      <trkpt lat="43.87276" lon="7.00351">
        <ele>338</ele>
        <time>2016-06-11T19:59:17Z</time>
      </trkpt>
      <trkpt lat="43.8727" lon="7.00214">
        <ele>341</ele>
        <time>2016-06-11T20:01:17Z</time>
      </trkpt>
      <trkpt lat="43.87296" lon="7.00123">
        <ele>341</ele>
        <time>2016-06-11T20:03:17Z</time>
      </trkpt>
      <trkpt lat="43.87321" lon="7.0004">
        <ele>338</ele>
        <time>2016-06-11T20:05:17Z</time>
      </trkpt>
      <trkpt lat="43.87315" lon="7.00012">
        <ele>345</ele>
        <time>2016-06-11T20:07:17Z</time>
      </trkpt>
      <trkpt lat="43.87333" lon="6.99954">
        <ele>338</ele>
        <time>2016-06-11T20:09:17Z</time>
      </trkpt>
      <trkpt lat="43.87347" lon="6.99795">
        <ele>343</ele>
        <time>2016-06-11T20:11:17Z</time>
      </trkpt>
      <trkpt lat="43.8735" lon="6.99711">
        <ele>347</ele>
        <time>2016-06-11T20:13:17Z</time>
      </trkpt>
      <trkpt lat="43.87389" lon="6.99591">
        <ele>347</ele>
        <time>2016-06-11T20:15:17Z</time>
      </trkpt>
      <trkpt lat="43.87435" lon="6.99469">
        <ele>347</ele>
        <time>2016-06-11T20:17:17Z</time>
      </trkpt>
      <trkpt lat="43.87457" lon="6.9939">
        <ele>351</ele>
        <time>2016-06-11T20:19:17Z</time>
      </trkpt>
      <trkpt lat="43.87468" lon="6.99299">
        <ele>355</ele>
        <time>2016-06-11T20:21:17Z</time>
      </trkpt>
      <trkpt lat="43.87449" lon="6.99295">
        <ele>365</ele>
        <time>2016-06-11T20:23:17Z</time>
      </trkpt>
      <trkpt lat="43.87451" lon="6.99248">
        <ele>367</ele>
        <time>2016-06-11T20:25:17Z</time>
      </trkpt>
      <trkpt lat="43.87446" lon="6.99162">
        <ele>375</ele>
        <time>2016-06-11T20:27:17Z</time>
      </trkpt>
      <trkpt lat="43.87429" lon="6.9907">
        <ele>380</ele>
        <time>2016-06-11T20:29:17Z</time>
      </trkpt>
      <trkpt lat="43.87404" lon="6.98993">
        <ele>382</ele>
        <time>2016-06-11T20:31:17Z</time>
      </trkpt>
      <trkpt lat="43.8737" lon="6.98907">
        <ele>375</ele>
        <time>2016-06-11T20:33:17Z</time>
      </trkpt>
      <trkpt lat="43.87355" lon="6.98855">
        <ele>366</ele>
        <time>2016-06-11T20:35:17Z</time>
      </trkpt>
      <trkpt lat="43.87321" lon="6.98845">
        <ele>373</ele>
        <time>2016-06-11T20:37:17Z</time>
      </trkpt>
      <trkpt lat="43.87294" lon="6.98825">
        <ele>373</ele>
        <time>2016-06-11T20:39:17Z</time>
      </trkpt>
      <trkpt lat="43.87267" lon="6.98825">
        <ele>379</ele>
        <time>2016-06-11T20:41:17Z</time>
      </trkpt>
      <trkpt lat="43.87219" lon="6.98795">
        <ele>381</ele>
        <time>2016-06-11T20:43:17Z</time>
      </trkpt>
      <trkpt lat="43.87191" lon="6.98765">
        <ele>379</ele>
        <time>2016-06-11T20:45:17Z</time>
      </trkpt>
      <trkpt lat="43.87148" lon="6.9875">
        <ele>379</ele>
        <time>2016-06-11T20:47:17Z</time>
      </trkpt>
      <trkpt lat="43.8711" lon="6.98718">
        <ele>383</ele>
        <time>2016-06-11T20:49:17Z</time>
      </trkpt>
      <trkpt lat="43.87076" lon="6.98692">
        <ele>382</ele>
        <time>2016-06-11T20:51:17Z</time>
      </trkpt>
      <trkpt lat="43.87038" lon="6.98654">
        <ele>383</ele>
        <time>2016-06-11T20:53:17Z</time>
      </trkpt>
      <trkpt lat="43.86979" lon="6.98598">
        <ele>389</ele>
        <time>2016-06-11T20:55:17Z</time>
      </trkpt>
      <trkpt lat="43.86933" lon="6.98632">
        <ele>385</ele>
        <time>2016-06-11T20:57:17Z</time>
      </trkpt>
      <trkpt lat="43.8688" lon="6.98694">
        <ele>387</ele>
        <time>2016-06-11T20:59:17Z</time>
      </trkpt>
      <trkpt lat="43.86849" lon="6.98726">
        <ele>392</ele>
        <time>2016-06-11T21:01:17Z</time>
      </trkpt>
      <trkpt lat="43.86782" lon="6.98696">
        <ele>400</ele>
        <time>2016-06-11T21:03:17Z</time>
      </trkpt>
      <trkpt lat="43.86758" lon="6.98716">
        <ele>410</ele>
        <time>2016-06-11T21:05:17Z</time>
      </trkpt>
      <trkpt lat="43.86727" lon="6.98692">
        <ele>409</ele>
        <time>2016-06-11T21:07:17Z</time>
      </trkpt>
      <trkpt lat="43.86673" lon="6.98703">
        <ele>422</ele>
        <time>2016-06-11T21:09:17Z</time>
      </trkpt>
      <trkpt lat="43.86649" lon="6.98737">
        <ele>436</ele>
        <time>2016-06-11T21:11:17Z</time>
      </trkpt>
      <trkpt lat="43.86614" lon="6.98754">
        <ele>447</ele>
        <time>2016-06-11T21:13:17Z</time>
      </trkpt>
      <trkpt lat="43.86567" lon="6.9878">
        <ele>466</ele>
        <time>2016-06-11T21:15:17Z</time>
      </trkpt>
      <trkpt lat="43.86536" lon="6.98829">
        <ele>491</ele>
        <time>2016-06-11T21:17:17Z</time>
      </trkpt>
      <trkpt lat="43.86571" lon="6.9889">
        <ele>526</ele>
        <time>2016-06-11T21:19:17Z</time>
      </trkpt>
      <trkpt lat="43.86614" lon="6.98935">
        <ele>538</ele>
        <time>2016-06-11T21:21:17Z</time>
      </trkpt>
      <trkpt lat="43.86637" lon="6.98993">
        <ele>554</ele>
        <time>2016-06-11T21:23:17Z</time>
      </trkpt>
      <trkpt lat="43.8667" lon="6.9904">
        <ele>567</ele>
        <time>2016-06-11T21:25:17Z</time>
      </trkpt>
      <trkpt lat="43.86708" lon="6.99098">
        <ele>578</ele>
        <time>2016-06-11T21:27:17Z</time>
      </trkpt>
      <trkpt lat="43.86721" lon="6.9913">
        <ele>592</ele>
        <time>2016-06-11T21:29:17Z</time>
      </trkpt>
      <trkpt lat="43.86731" lon="6.99171">
        <ele>612</ele>
        <time>2016-06-11T21:31:17Z</time>
      </trkpt>
      <trkpt lat="43.86753" lon="6.99222">
        <ele>622</ele>
        <time>2016-06-11T21:33:17Z</time>
      </trkpt>
      <trkpt lat="43.86778" lon="6.99299">
        <ele>642</ele>
        <time>2016-06-11T21:35:17Z</time>
      </trkpt>
      <trkpt lat="43.8682" lon="6.99362">
        <ele>633</ele>
        <time>2016-06-11T21:37:17Z</time>
      </trkpt>
      <trkpt lat="43.86835" lon="6.99456">
        <ele>643</ele>
        <time>2016-06-11T21:39:17Z</time>
      </trkpt>
      <trkpt lat="43.86835" lon="6.99553">
        <ele>639</ele>
        <time>2016-06-11T21:41:17Z</time>
      </trkpt>
      <trkpt lat="43.86806" lon="6.99662">
        <ele>634</ele>
        <time>2016-06-11T21:43:17Z</time>
      </trkpt>
      <trkpt lat="43.86782" lon="6.99724">
        <ele>629</ele>
        <time>2016-06-11T21:45:17Z</time>
      </trkpt>
      <trkpt lat="43.86779" lon="6.99819">
        <ele>600</ele>
        <time>2016-06-11T21:47:17Z</time>
      </trkpt>
      <trkpt lat="43.86752" lon="6.99842">
        <ele>607</ele>
        <time>2016-06-11T21:49:17Z</time>
      </trkpt>
      <trkpt lat="43.86756" lon="6.99905">
        <ele>580</ele>
        <time>2016-06-11T21:51:17Z</time>
      </trkpt>
      <trkpt lat="43.86752" lon="6.99952">
        <ele>562</ele>
        <time>2016-06-11T21:53:17Z</time>
      </trkpt>
      <trkpt lat="43.86719" lon="6.9998">
        <ele>569</ele>
        <time>2016-06-11T21:55:17Z</time>
      </trkpt>
      <trkpt lat="43.86707" lon="7.00012">
        <ele>563</ele>
        <time>2016-06-11T21:57:17Z</time>
      </trkpt>
      <trkpt lat="43.86742" lon="6.99999">
        <ele>546</ele>
        <time>2016-06-11T21:59:17Z</time>
      </trkpt>
      <trkpt lat="43.86795" lon="6.99977">
        <ele>531</ele>
        <time>2016-06-11T22:01:17Z</time>
      </trkpt>
      <trkpt lat="43.86861" lon="6.99922">
        <ele>525</ele>
        <time>2016-06-11T22:03:17Z</time>
      </trkpt>
      <trkpt lat="43.86942" lon="6.99853">
        <ele>512</ele>
        <time>2016-06-11T22:05:17Z</time>
      </trkpt>
      <trkpt lat="43.8697" lon="6.99791">
        <ele>503</ele>
        <time>2016-06-11T22:07:17Z</time>
      </trkpt>
      <trkpt lat="43.86971" lon="6.99733">
        <ele>508</ele>
        <time>2016-06-11T22:09:17Z</time>
      </trkpt>
      <trkpt lat="43.87004" lon="6.99754">
        <ele>484</ele>
        <time>2016-06-11T22:11:17Z</time>
      </trkpt>
      <trkpt lat="43.8703" lon="6.99844">
        <ele>467</ele>
        <time>2016-06-11T22:13:17Z</time>
      </trkpt>
      <trkpt lat="43.87067" lon="6.99883">
        <ele>448</ele>
        <time>2016-06-11T22:15:17Z</time>
      </trkpt>
      <trkpt lat="43.87075" lon="6.9996">
        <ele>437</ele>
        <time>2016-06-11T22:17:17Z</time>
      </trkpt>
      <trkpt lat="43.87089" lon="7.00035">
        <ele>420</ele>
        <time>2016-06-11T22:19:17Z</time>
      </trkpt>
      <trkpt lat="43.871" lon="7.00171">
        <ele>398</ele>
        <time>2016-06-11T22:21:17Z</time>
      </trkpt>
      <trkpt lat="43.87115" lon="7.00224">
        <ele>393</ele>
        <time>2016-06-11T22:23:17Z</time>
      </trkpt>
      <trkpt lat="43.87161" lon="7.00237">
        <ele>390</ele>
        <time>2016-06-11T22:25:17Z</time>
      </trkpt>
      <trkpt lat="43.87194" lon="7.00319">
        <ele>379</ele>
        <time>2016-06-11T22:27:17Z</time>
      </trkpt>
      <trkpt lat="43.87222" lon="7.00443">
        <ele>349</ele>
        <time>2016-06-11T22:29:17Z</time>
      </trkpt>
      <trkpt lat="43.87231" lon="7.00538">
        <ele>326</ele>
        <time>2016-06-11T22:31:17Z</time>
      </trkpt>
    </trkseg>
  </trk>
</gpx>